Accueil
METAR-TAF:

METAR-TAF

Aéroports :

Aviano Air Base

Aviano, Italie

latitude: 46-02N, longitude: 012-36E, altitude: 128 m

Observation

Le bulletin a été fait il y a 1 heure et 12 minutes, à 12:55 UTC
Vent 1 kt de sud
Température 4°C
Humidité 81%
Pression 1026 hPa
Visibilité: 4000 m
Nuages épars à une hauteur de 3000 ft
Nuages fragmentés à une hauteur de 4000 ft
brume

METAR: LIPA 271255Z 19001KT 4000 BR SCT030 BKN040 04/01 Q1026 RMK OVC VIS MIN 2600SW WIND THR05 /////KT WIND THR23 /////KT A3030 YLO

Heure: 15:07 (14:07 UTC)

Prévision

Le bulletin a été fait il y a 3 heures et 7 minutes, à 11:00 UTC
Prévision valable du 27 à 12 UTC au 27 à 21 UTC
Vent 3 kt de direction variable
Visibilité: 8000 m
Nuages épars à une hauteur de 2000 ft
Nuages épars à une hauteur de 7000 ft
Temporairement
du 27 à 12 UTC au 27 à 17 UTC
Visibilité: 3000 m
brume

TAF: LIPA 271100Z 2712/2721 VRB03KT 8000 SCT020 SCT070 TEMPO 2712/2717 3000 BR

Observations et prévisions météorologiques de plus de 4000 aéroports (messages METAR et TAF).

Les stations disponibles sont représentées par des disques jaunes et rouges sur la carte.

Passer la souris dessus pour voir le nom de la station.

Cliquer dessus pour voir les observations et prévisions météorologiques.

Pour changer de carte: cliquez sur les boutons verts avec une croix noire pour zoomer, sur le bouton vert avec un tiret pour effectuer un zoom arrière, ou sur les flèches vertes pour les cartes adjacentes.


METAR-TAF: